Time;durP1;ratioP1;P1;durP2;ratioP2;P2;SDS_P1;SDS_P2;PMS_P1;PMS_P2;Temp;Humidity;BMP_temperature;BMP_pressure;BME280_temperature;BME280_humidity;BME280_pressure;Samples;Min_cycle;Max_cycle;Signal;HPM_P1;HPM_P2
2023/04/11 00:00:09;;;;;;;2.53;1.47;;;;;;;;;;6215251;23;20520;-74
2023/04/11 00:02:37;;;;;;;3.10;1.10;;;;;;;;;;6215494;23;20375;-66
2023/04/11 00:05:04;;;;;;;0.97;0.97;;;;;;;;;;6215656;23;20377;-67
2023/04/11 00:07:30;;;;;;;1.10;1.03;;;;;;;;;;6215772;23;20375;-71
2023/04/11 00:09:56;;;;;;;1.20;1.20;;;;;;;;;;6215207;23;20403;-71
2023/04/11 00:12:22;;;;;;;0.83;0.83;;;;;;;;;;6215253;23;20375;-72
2023/04/11 00:14:48;;;;;;;0.87;0.87;;;;;;;;;;6215744;23;20466;-72
2023/04/11 00:17:16;;;;;;;1.10;1.10;;;;;;;;;;6215485;23;20450;-68
2023/04/11 00:19:42;;;;;;;1.20;1.10;;;;;;;;;;6215301;23;20418;-66
2023/04/11 00:22:09;;;;;;;0.77;0.67;;;;;;;;;;6215518;23;20719;-67
2023/04/11 00:24:35;;;;;;;0.70;0.70;;;;;;;;;;6215306;23;20754;-68
2023/04/11 00:27:01;;;;;;;1.10;1.10;;;;;;;;;;6216343;23;20445;-71
2023/04/11 00:29:27;;;;;;;1.10;1.10;;;;;;;;;;6217385;23;20786;-65
2023/04/11 00:31:55;;;;;;;0.80;0.80;;;;;;;;;;6217679;23;20379;-67
2023/04/11 00:34:21;;;;;;;1.30;1.20;;;;;;;;;;6217211;23;20833;-66
2023/04/11 00:36:47;;;;;;;3.27;1.07;;;;;;;;;;6218340;23;20411;-73
2023/04/11 00:39:17;;;;;;;0.80;0.80;;;;;;;;;;6217532;23;20419;-65
2023/04/11 00:41:43;;;;;;;0.77;0.67;;;;;;;;;;6217475;23;20406;-69
2023/04/11 00:44:10;;;;;;;1.13;0.77;;;;;;;;;;6218517;23;20375;-65
2023/04/11 00:46:36;;;;;;;1.63;0.97;;;;;;;;;;6217597;23;20709;-68
2023/04/11 00:49:02;;;;;;;1.13;1.13;;;;;;;;;;6217142;23;20453;-67
2023/04/11 00:51:28;;;;;;;1.20;1.10;;;;;;;;;;6216867;23;20375;-67
2023/04/11 00:53:54;;;;;;;1.33;0.67;;;;;;;;;;6217129;23;20829;-70
2023/04/11 00:56:21;;;;;;;1.10;0.70;;;;;;;;;;6217426;23;20379;-69
2023/04/11 00:58:47;;;;;;;1.13;1.03;;;;;;;;;;6217413;23;20821;-65
2023/04/11 01:01:15;;;;;;;2.20;1.10;;;;;;;;;;6217227;23;20445;-65
2023/04/11 01:03:41;;;;;;;0.63;0.63;;;;;;;;;;6217376;23;20375;-69
2023/04/11 01:06:08;;;;;;;1.90;0.90;;;;;;;;;;6217366;23;20391;-66
2023/04/11 01:08:34;;;;;;;0.80;0.80;;;;;;;;;;6217370;23;20454;-65
2023/04/11 01:11:01;;;;;;;2.93;0.70;;;;;;;;;;6217180;23;20421;-70
2023/04/11 01:13:28;;;;;;;3.30;0.60;;;;;;;;;;6217267;23;20371;-66
2023/04/11 01:15:54;;;;;;;2.77;1.20;;;;;;;;;;6216878;23;20391;-74
2023/04/11 01:18:20;;;;;;;1.53;1.43;;;;;;;;;;6217260;23;20386;-74
2023/04/11 01:20:46;;;;;;;1.03;1.03;;;;;;;;;;6216678;23;20435;-70
2023/04/11 01:23:13;;;;;;;1.00;1.00;;;;;;;;;;6217500;23;20403;-75
2023/04/11 01:25:39;;;;;;;0.87;0.87;;;;;;;;;;6217020;23;20390;-68
2023/04/11 01:28:07;;;;;;;9.20;1.13;;;;;;;;;;6217128;23;20375;-69
2023/04/11 01:30:33;;;;;;;1.60;1.20;;;;;;;;;;6217007;23;20387;-68
2023/04/11 01:32:59;;;;;;;1.30;1.20;;;;;;;;;;6217471;23;20375;-67
2023/04/11 01:35:25;;;;;;;3.50;1.20;;;;;;;;;;6216668;23;20382;-67
2023/04/11 01:37:51;;;;;;;2.77;1.00;;;;;;;;;;6216825;23;20462;-69
2023/04/11 01:40:18;;;;;;;0.70;0.70;;;;;;;;;;6216351;23;20446;-68
2023/04/11 01:42:44;;;;;;;0.90;0.90;;;;;;;;;;6217139;23;20375;-67
2023/04/11 01:45:11;;;;;;;1.00;1.00;;;;;;;;;;6216667;23;20394;-69
2023/04/11 01:47:38;;;;;;;0.67;0.67;;;;;;;;;;6217004;23;20389;-66
2023/04/11 01:50:04;;;;;;;0.90;0.90;;;;;;;;;;6216802;23;20394;-67
2023/04/11 01:52:30;;;;;;;1.00;1.00;;;;;;;;;;6216601;23;20724;-73
2023/04/11 01:54:56;;;;;;;0.90;0.90;;;;;;;;;;6217787;23;20394;-69
2023/04/11 01:57:22;;;;;;;0.70;0.70;;;;;;;;;;6217291;23;20861;-67
2023/04/11 01:59:48;;;;;;;0.73;0.73;;;;;;;;;;6214836;23;20435;-71
2023/04/11 02:02:14;;;;;;;0.83;0.83;;;;;;;;;;6216771;23;20884;-71
2023/04/11 02:04:40;;;;;;;1.33;1.23;;;;;;;;;;6216738;23;20650;-69
2023/04/11 02:07:07;;;;;;;0.90;0.90;;;;;;;;;;6216533;23;20371;-66
2023/04/11 02:09:33;;;;;;;1.43;0.90;;;;;;;;;;6216877;23;20363;-66
2023/04/11 02:11:59;;;;;;;1.10;1.10;;;;;;;;;;6216563;23;20375;-72
2023/04/11 02:14:26;;;;;;;0.90;0.90;;;;;;;;;;6216690;23;20458;-65
2023/04/11 02:16:53;;;;;;;1.23;0.77;;;;;;;;;;6216460;23;20375;-65
2023/04/11 02:19:20;;;;;;;0.80;0.80;;;;;;;;;;6216414;23;20473;-68
2023/04/11 02:21:46;;;;;;;0.80;0.80;;;;;;;;;;6216580;23;20391;-69
2023/04/11 02:24:12;;;;;;;1.27;1.07;;;;;;;;;;6216315;23;20371;-70
2023/04/11 02:26:38;;;;;;;0.97;0.80;;;;;;;;;;6216661;23;20694;-68
2023/04/11 02:29:04;;;;;;;1.80;1.10;;;;;;;;;;6216607;23;20437;-68
2023/04/11 02:31:30;;;;;;;1.67;1.13;;;;;;;;;;6216149;23;20387;-70
2023/04/11 02:33:56;;;;;;;2.20;1.10;;;;;;;;;;6216581;23;20385;-67
2023/04/11 02:36:22;;;;;;;1.33;0.93;;;;;;;;;;6216449;23;20390;-66
2023/04/11 02:38:48;;;;;;;1.20;0.83;;;;;;;;;;6216217;23;20415;-72
2023/04/11 02:41:14;;;;;;;1.13;1.13;;;;;;;;;;6216277;23;20423;-69
2023/04/11 02:43:40;;;;;;;0.90;0.90;;;;;;;;;;6214614;23;20864;-73
2023/04/11 02:46:06;;;;;;;1.10;1.00;;;;;;;;;;6216185;23;20845;-71
2023/04/11 02:48:33;;;;;;;3.70;0.90;;;;;;;;;;6216998;23;20375;-69
2023/04/11 02:50:59;;;;;;;2.20;0.97;;;;;;;;;;6216078;23;20411;-67
2023/04/11 02:53:25;;;;;;;1.23;1.23;;;;;;;;;;6216316;23;20387;-68
2023/04/11 02:55:51;;;;;;;1.10;1.10;;;;;;;;;;6216303;23;20825;-68
2023/04/11 02:58:18;;;;;;;1.73;0.90;;;;;;;;;;6216398;23;20381;-67
2023/04/11 03:00:45;;;;;;;2.67;1.10;;;;;;;;;;6214249;23;20463;-68
2023/04/11 03:03:11;;;;;;;1.23;0.90;;;;;;;;;;6216329;23;20372;-71
2023/04/11 03:05:37;;;;;;;1.33;0.97;;;;;;;;;;6216186;23;20371;-67
2023/04/11 03:08:03;;;;;;;1.27;0.80;;;;;;;;;;6216248;23;20383;-67
2023/04/11 03:10:29;;;;;;;0.90;0.90;;;;;;;;;;6215655;23;20482;-68
2023/04/11 03:12:55;;;;;;;3.93;1.13;;;;;;;;;;6216164;23;20384;-68
2023/04/11 03:15:21;;;;;;;1.20;1.20;;;;;;;;;;6216347;23;20665;-67
2023/04/11 03:17:47;;;;;;;1.10;1.00;;;;;;;;;;6215821;23;20712;-67
2023/04/11 03:20:18;;;;;;;1.00;0.80;;;;;;;;;;6215943;23;20545;-69
2023/04/11 03:22:45;;;;;;;0.70;0.70;;;;;;;;;;6216119;23;20366;-75
2023/04/11 03:25:11;;;;;;;1.17;1.17;;;;;;;;;;6215966;23;20383;-67
2023/04/11 03:27:37;;;;;;;2.33;1.10;;;;;;;;;;6216133;23;20372;-65
2023/04/11 03:30:03;;;;;;;0.90;0.90;;;;;;;;;;6216090;23;20769;-66
2023/04/11 03:32:30;;;;;;;3.70;1.20;;;;;;;;;;6215830;23;20448;-65
2023/04/11 03:34:56;;;;;;;0.90;0.90;;;;;;;;;;6215929;23;20410;-65
2023/04/11 03:37:22;;;;;;;0.70;0.70;;;;;;;;;;6215678;23;20848;-65
2023/04/11 03:39:48;;;;;;;2.00;0.90;;;;;;;;;;6215820;23;20450;-65
2023/04/11 03:42:14;;;;;;;3.17;1.03;;;;;;;;;;6215969;23;20375;-67
2023/04/11 03:44:40;;;;;;;0.67;0.67;;;;;;;;;;6215616;23;20406;-67
2023/04/11 03:47:06;;;;;;;0.60;0.60;;;;;;;;;;6215664;23;20376;-70
2023/04/11 03:49:32;;;;;;;0.87;0.87;;;;;;;;;;6216509;23;20379;-68
2023/04/11 03:51:58;;;;;;;4.63;1.53;;;;;;;;;;6215847;23;20813;-68
2023/04/11 03:54:24;;;;;;;1.07;0.93;;;;;;;;;;6215540;23;20742;-69
2023/04/11 03:56:50;;;;;;;4.17;0.63;;;;;;;;;;6215850;23;20371;-71
2023/04/11 03:59:16;;;;;;;2.47;1.50;;;;;;;;;;6213927;23;20426;-69
2023/04/11 04:01:42;;;;;;;0.97;0.90;;;;;;;;;;6215036;23;20379;-68
2023/04/11 04:04:08;;;;;;;3.40;1.00;;;;;;;;;;6215757;23;20375;-68
2023/04/11 04:09:40;;;;;;;0.67;0.67;;;;;;;;;;6215591;23;20358;-67
2023/04/11 04:12:06;;;;;;;0.97;0.73;;;;;;;;;;6215637;23;20380;-68
2023/04/11 04:14:32;;;;;;;3.30;0.70;;;;;;;;;;6216350;23;20392;-67
2023/04/11 04:16:58;;;;;;;0.70;0.70;;;;;;;;;;6215419;23;20363;-67
2023/04/11 04:19:24;;;;;;;1.10;1.00;;;;;;;;;;6215704;23;20383;-67
2023/04/11 04:21:50;;;;;;;3.90;1.93;;;;;;;;;;6215722;23;20852;-67
2023/04/11 04:24:16;;;;;;;6.30;0.77;;;;;;;;;;6213669;23;20390;-70
2023/04/11 04:26:42;;;;;;;3.13;0.90;;;;;;;;;;6215655;23;20458;-64
2023/04/11 04:29:09;;;;;;;0.90;0.90;;;;;;;;;;6216558;23;20376;-66
2023/04/11 04:31:35;;;;;;;1.20;0.40;;;;;;;;;;6215612;23;20449;-71
2023/04/11 04:34:02;;;;;;;0.73;0.73;;;;;;;;;;6215108;23;20679;-65
2023/04/11 04:36:28;;;;;;;0.87;0.50;;;;;;;;;;6215121;23;20707;-66
2023/04/11 04:39:00;;;;;;;0.40;0.40;;;;;;;;;;6215019;23;20372;-66
2023/04/11 04:41:35;;;;;;;0.50;0.50;;;;;;;;;;6215461;23;20419;-68
2023/04/11 04:44:03;;;;;;;0.30;0.30;;;;;;;;;;6215628;23;20366;-67
2023/04/11 04:46:35;;;;;;;1.50;0.50;;;;;;;;;;6215422;23;20440;-66
2023/04/11 04:49:01;;;;;;;0.40;0.40;;;;;;;;;;6215570;23;20417;-65
2023/04/11 04:51:29;;;;;;;0.50;0.40;;;;;;;;;;6216057;23;20371;-67
2023/04/11 04:53:58;;;;;;;0.40;0.40;;;;;;;;;;6215917;23;20378;-65
2023/04/11 04:56:25;;;;;;;0.60;0.50;;;;;;;;;;6215102;23;20911;-70
2023/04/11 04:58:51;;;;;;;0.57;0.57;;;;;;;;;;6215513;23;20375;-72
2023/04/11 05:01:17;;;;;;;0.80;0.80;;;;;;;;;;6215265;23;20521;-72
2023/04/11 05:03:45;;;;;;;1.20;1.20;;;;;;;;;;6215089;23;20375;-68
2023/04/11 05:09:15;;;;;;;0.40;0.40;;;;;;;;;;6215368;23;20498;-72
2023/04/11 05:11:41;;;;;;;0.37;0.37;;;;;;;;;;6215116;23;20792;-74
2023/04/11 05:14:07;;;;;;;4.03;0.50;;;;;;;;;;6216999;23;20413;-75
2023/04/11 05:16:33;;;;;;;0.50;0.50;;;;;;;;;;6216372;23;20899;-74
2023/04/11 05:18:59;;;;;;;2.60;1.57;;;;;;;;;;6216525;23;20371;-75
2023/04/11 05:21:25;;;;;;;0.43;0.43;;;;;;;;;;6216701;23;20931;-73
2023/04/11 05:23:51;;;;;;;0.93;0.30;;;;;;;;;;6217305;23;20383;-73
2023/04/11 05:26:17;;;;;;;0.30;0.30;;;;;;;;;;6216703;23;20398;-71
2023/04/11 05:28:43;;;;;;;0.43;0.30;;;;;;;;;;6217961;23;20506;-72
2023/04/11 05:31:10;;;;;;;2.60;0.70;;;;;;;;;;6216996;23;20390;-72
2023/04/11 05:33:40;;;;;;;0.50;0.50;;;;;;;;;;6215190;23;20383;-67
2023/04/11 05:36:07;;;;;;;1.00;0.90;;;;;;;;;;6216504;23;20767;-70
2023/04/11 05:38:33;;;;;;;0.70;0.70;;;;;;;;;;6217011;23;20368;-68
2023/04/11 05:40:59;;;;;;;1.20;0.70;;;;;;;;;;6214966;23;20542;-70
2023/04/11 05:43:25;;;;;;;0.73;0.73;;;;;;;;;;6216943;23;20854;-71
2023/04/11 05:45:51;;;;;;;1.97;1.97;;;;;;;;;;6217107;23;20411;-70
2023/04/11 05:48:21;;;;;;;1.83;1.73;;;;;;;;;;6216772;23;20837;-65
2023/04/11 05:50:47;;;;;;;0.87;0.87;;;;;;;;;;6216882;23;20425;-65
2023/04/11 05:53:13;;;;;;;1.07;0.70;;;;;;;;;;6217001;23;20383;-65
2023/04/11 05:55:39;;;;;;;0.30;0.30;;;;;;;;;;6216904;23;20407;-65
2023/04/11 05:58:05;;;;;;;0.40;0.40;;;;;;;;;;6217046;23;20454;-65
2023/04/11 06:00:31;;;;;;;1.47;0.60;;;;;;;;;;6216283;23;20805;-66
2023/04/11 06:02:59;;;;;;;1.40;0.30;;;;;;;;;;6214863;23;20737;-64
2023/04/11 06:05:25;;;;;;;7.93;0.40;;;;;;;;;;6216696;23;20381;-67
2023/04/11 06:07:51;;;;;;;0.77;0.40;;;;;;;;;;6215071;23;20754;-67
2023/04/11 06:10:18;;;;;;;1.27;0.50;;;;;;;;;;6216119;23;20391;-66
2023/04/11 06:12:44;;;;;;;0.60;0.50;;;;;;;;;;6216504;23;20375;-66
2023/04/11 06:15:13;;;;;;;1.13;0.47;;;;;;;;;;6217513;23;20383;-63
2023/04/11 06:17:39;;;;;;;0.50;0.50;;;;;;;;;;6217285;23;20363;-66
2023/04/11 06:20:07;;;;;;;0.50;0.50;;;;;;;;;;6217444;23;20423;-67
2023/04/11 06:22:33;;;;;;;2.67;0.47;;;;;;;;;;6216742;23;20723;-67
2023/04/11 06:24:59;;;;;;;4.00;0.80;;;;;;;;;;6216932;23;20367;-66
2023/04/11 06:27:25;;;;;;;0.80;0.80;;;;;;;;;;6216551;23;20386;-67
2023/04/11 06:29:51;;;;;;;0.40;0.40;;;;;;;;;;6216262;23;20442;-66
2023/04/11 06:32:17;;;;;;;0.40;0.40;;;;;;;;;;6216518;23;20383;-66
2023/04/11 06:34:43;;;;;;;1.90;0.50;;;;;;;;;;6216012;23;20461;-65
2023/04/11 06:37:09;;;;;;;1.97;0.50;;;;;;;;;;6216564;23;20375;-66
2023/04/11 06:39:35;;;;;;;0.50;0.50;;;;;;;;;;6215746;23;20516;-68
2023/04/11 06:42:02;;;;;;;1.70;0.67;;;;;;;;;;6216370;23;20387;-67
2023/04/11 06:44:28;;;;;;;0.50;0.50;;;;;;;;;;6214512;23;20391;-71
2023/04/11 06:46:54;;;;;;;0.50;0.50;;;;;;;;;;6216577;23;20406;-66
2023/04/11 06:49:22;;;;;;;0.40;0.40;;;;;;;;;;6216205;23;20427;-68
2023/04/11 06:51:49;;;;;;;0.87;0.50;;;;;;;;;;6216365;23;20918;-66
2023/04/11 06:54:15;;;;;;;3.60;0.70;;;;;;;;;;6216289;23;20379;-66
2023/04/11 06:56:41;;;;;;;0.77;0.40;;;;;;;;;;6216059;23;20371;-66
2023/04/11 06:59:08;;;;;;;2.53;0.70;;;;;;;;;;6215967;23;20502;-67
2023/04/11 07:01:38;;;;;;;0.80;0.70;;;;;;;;;;6216121;23;20442;-66
2023/04/11 07:04:07;;;;;;;0.57;0.57;;;;;;;;;;6216514;23;20394;-67
2023/04/11 07:06:34;;;;;;;0.57;0.57;;;;;;;;;;6214270;23;20410;-69
2023/04/11 07:09:00;;;;;;;0.93;0.93;;;;;;;;;;6215483;23;20430;-68
2023/04/11 07:11:27;;;;;;;1.57;0.40;;;;;;;;;;6216651;23;20415;-67
2023/04/11 07:13:54;;;;;;;0.80;0.80;;;;;;;;;;6215653;23;20409;-66
2023/04/11 07:16:20;;;;;;;1.87;1.10;;;;;;;;;;6214241;23;20709;-72
2023/04/11 07:18:46;;;;;;;1.57;1.00;;;;;;;;;;6215585;23;20383;-68
2023/04/11 07:21:12;;;;;;;1.50;1.50;;;;;;;;;;6215732;23;20438;-75
2023/04/11 07:23:39;;;;;;;5.13;0.90;;;;;;;;;;6216066;23;20371;-74
2023/04/11 07:26:05;;;;;;;2.50;0.70;;;;;;;;;;6214301;23;20395;-68
2023/04/11 07:28:31;;;;;;;0.50;0.50;;;;;;;;;;6214211;23;20390;-66
2023/04/11 07:30:57;;;;;;;2.30;0.70;;;;;;;;;;6215995;23;20383;-67
2023/04/11 07:33:23;;;;;;;0.70;0.70;;;;;;;;;;6215954;23;20375;-66
2023/04/11 07:35:49;;;;;;;1.70;0.40;;;;;;;;;;6215692;23;20380;-68
2023/04/11 07:38:25;;;;;;;3.30;0.73;;;;;;;;;;6215992;23;20368;-67
2023/04/11 07:40:51;;;;;;;0.70;0.40;;;;;;;;;;6215450;23;20541;-73
2023/04/11 07:43:17;;;;;;;1.13;0.67;;;;;;;;;;6215953;23;20383;-69
2023/04/11 07:45:43;;;;;;;1.47;0.60;;;;;;;;;;6215966;23;20383;-67
2023/04/11 07:48:10;;;;;;;3.77;0.67;;;;;;;;;;6215690;23;20371;-67
2023/04/11 07:50:36;;;;;;;0.50;0.50;;;;;;;;;;6215425;23;20850;-71
2023/04/11 07:53:02;;;;;;;1.33;0.60;;;;;;;;;;6214086;23;20420;-77
2023/04/11 07:55:28;;;;;;;7.20;0.47;;;;;;;;;;6213997;23;20792;-75
2023/04/11 07:57:54;;;;;;;1.60;0.60;;;;;;;;;;6215589;23;20375;-74
2023/04/11 08:00:21;;;;;;;0.80;0.80;;;;;;;;;;6215705;23;20526;-73
2023/04/11 08:02:47;;;;;;;5.00;1.53;;;;;;;;;;6215540;23;20411;-71
2023/04/11 08:05:13;;;;;;;1.03;0.57;;;;;;;;;;6215885;23;20848;-68
2023/04/11 08:07:40;;;;;;;0.50;0.50;;;;;;;;;;6215861;23;20366;-67
2023/04/11 08:10:06;;;;;;;2.90;0.77;;;;;;;;;;6215553;23;20739;-73
2023/04/11 08:12:32;;;;;;;1.33;0.70;;;;;;;;;;6215410;23;20375;-71
2023/04/11 08:14:59;;;;;;;3.37;0.50;;;;;;;;;;6215846;23;20526;-73
2023/04/11 08:17:27;;;;;;;1.07;0.50;;;;;;;;;;6213930;23;20394;-69
2023/04/11 08:19:53;;;;;;;1.80;0.60;;;;;;;;;;6215588;23;20423;-74
2023/04/11 08:22:19;;;;;;;2.00;0.87;;;;;;;;;;6215463;23;20746;-70
2023/04/11 08:24:45;;;;;;;5.30;0.60;;;;;;;;;;6215512;23;20367;-75
2023/04/11 08:27:11;;;;;;;0.50;0.50;;;;;;;;;;6215785;23;20829;-77
2023/04/11 08:29:37;;;;;;;2.70;1.20;;;;;;;;;;6215415;23;20371;-77
2023/04/11 08:32:04;;;;;;;2.20;0.77;;;;;;;;;;6213789;23;20729;-75
2023/04/11 08:34:33;;;;;;;3.03;0.60;;;;;;;;;;6215507;23;20407;-70
2023/04/11 08:36:59;;;;;;;0.50;0.50;;;;;;;;;;6215470;23;20375;-74
2023/04/11 08:39:25;;;;;;;1.90;0.57;;;;;;;;;;6215393;23;20426;-76
2023/04/11 08:41:51;;;;;;;0.80;0.80;;;;;;;;;;6215735;23;20380;-73
2023/04/11 08:44:17;;;;;;;0.40;0.40;;;;;;;;;;6215697;23;20425;-73
2023/04/11 08:46:43;;;;;;;3.00;1.07;;;;;;;;;;6213783;23;20395;-73
2023/04/11 08:49:10;;;;;;;1.07;0.53;;;;;;;;;;6216895;23;20379;-76
2023/04/11 08:51:36;;;;;;;0.73;0.73;;;;;;;;;;6217563;23;20383;-69
2023/04/11 08:54:04;;;;;;;6.10;0.50;;;;;;;;;;6215754;23;20457;-69
2023/04/11 08:56:30;;;;;;;2.00;0.60;;;;;;;;;;6217175;23;20927;-66
2023/04/11 08:58:56;;;;;;;0.47;0.43;;;;;;;;;;6217377;23;20853;-67
2023/04/11 09:01:32;;;;;;;1.90;0.60;;;;;;;;;;6217373;23;20430;-69
2023/04/11 09:04:03;;;;;;;1.00;0.70;;;;;;;;;;6216830;23;20389;-69
2023/04/11 09:06:31;;;;;;;2.83;0.50;;;;;;;;;;6217599;23;20263;-73
2023/04/11 09:09:00;;;;;;;1.57;0.60;;;;;;;;;;6217546;23;20378;-66
2023/04/11 09:11:27;;;;;;;4.87;1.17;;;;;;;;;;6217401;23;20896;-77
2023/04/11 09:14:09;;;;;;;0.87;0.73;;;;;;;;;;6217417;23;20413;-73
2023/04/11 09:16:35;;;;;;;1.83;1.60;;;;;;;;;;6217698;23;20378;-74
2023/04/11 09:19:01;;;;;;;1.27;0.50;;;;;;;;;;6217019;23;20402;-75
2023/04/11 09:21:28;;;;;;;0.47;0.47;;;;;;;;;;6217150;23;20426;-71
2023/04/11 09:23:54;;;;;;;1.57;1.00;;;;;;;;;;6217299;23;20375;-68
2023/04/11 09:26:27;;;;;;;5.47;0.60;;;;;;;;;;6217317;23;20379;-74
2023/04/11 09:28:53;;;;;;;0.57;0.57;;;;;;;;;;6217331;23;20381;-74
2023/04/11 09:31:19;;;;;;;3.73;0.50;;;;;;;;;;6216838;23;20359;-73
2023/04/11 09:33:56;;;;;;;2.17;0.60;;;;;;;;;;6217278;23;20390;-72
2023/04/11 09:36:23;;;;;;;2.67;1.07;;;;;;;;;;6216903;23;20367;-76
2023/04/11 09:38:50;;;;;;;2.53;1.00;;;;;;;;;;6215083;23;20452;-76
2023/04/11 09:41:28;;;;;;;1.27;0.80;;;;;;;;;;6218025;23;20435;-73
2023/04/11 09:43:54;;;;;;;3.47;0.77;;;;;;;;;;6217252;23;20371;-78
2023/04/11 09:46:20;;;;;;;1.70;0.70;;;;;;;;;;6217178;23;20407;-74
2023/04/11 09:48:47;;;;;;;0.60;0.50;;;;;;;;;;6217112;23;20458;-68
2023/04/11 09:51:14;;;;;;;0.40;0.40;;;;;;;;;;6216984;23;20407;-69
2023/04/11 09:53:40;;;;;;;1.80;0.93;;;;;;;;;;6216997;23;20379;-71
2023/04/11 09:56:06;;;;;;;2.53;0.60;;;;;;;;;;6217074;23;20379;-71
2023/04/11 09:58:37;;;;;;;2.63;0.90;;;;;;;;;;6216830;23;20406;-74
2023/04/11 10:01:06;;;;;;;0.60;0.60;;;;;;;;;;6216484;23;20430;-72
2023/04/11 10:03:33;;;;;;;1.10;0.60;;;;;;;;;;6216939;23;20375;-75
2023/04/11 10:06:00;;;;;;;2.90;0.83;;;;;;;;;;6215033;23;20402;-69
2023/04/11 10:08:26;;;;;;;0.93;0.93;;;;;;;;;;6216902;23;20378;-74
2023/04/11 10:10:53;;;;;;;0.80;0.80;;;;;;;;;;6216453;23;20391;-77
2023/04/11 10:13:37;;;;;;;0.70;0.70;;;;;;;;;;6216958;23;20387;-75
2023/04/11 10:16:21;;;;;;;1.07;0.77;;;;;;;;;;6216850;23;20391;-76
2023/04/11 10:18:47;;;;;;;0.67;0.67;;;;;;;;;;6214805;23;20510;-67
2023/04/11 10:21:31;;;;;;;3.03;1.17;;;;;;;;;;6216427;23;20467;-66
2023/04/11 10:24:14;;;;;;;2.03;0.97;;;;;;;;;;6216690;23;20385;-74
2023/04/11 10:26:52;;;;;;;0.80;0.80;;;;;;;;;;6216445;23;20383;-68
2023/04/11 10:29:32;;;;;;;2.00;0.80;;;;;;;;;;6216697;23;20460;-67
2023/04/11 10:32:16;;;;;;;6.57;1.40;;;;;;;;;;6215968;23;20379;-75
2023/04/11 10:34:54;;;;;;;1.07;0.60;;;;;;;;;;6216432;23;20502;-75
2023/04/11 10:37:29;;;;;;;5.17;0.80;;;;;;;;;;6216554;23;20379;-73
2023/04/11 10:40:11;;;;;;;4.37;0.70;;;;;;;;;;6215759;23;20910;-66
2023/04/11 10:42:43;;;;;;;1.03;0.83;;;;;;;;;;6216580;23;20840;-76
2023/04/11 10:45:25;;;;;;;3.13;0.80;;;;;;;;;;6190147;23;20375;-71
2023/04/11 10:47:51;;;;;;;2.00;1.10;;;;;;;;;;6216540;23;20379;-66
2023/04/11 10:50:26;;;;;;;3.30;0.90;;;;;;;;;;6216071;23;20375;-70
2023/04/11 10:52:53;;;;;;;3.80;0.50;;;;;;;;;;6216691;23;20381;-71
2023/04/11 10:55:19;;;;;;;0.50;0.50;;;;;;;;;;6214495;23;20391;-69
2023/04/11 10:58:07;;;;;;;1.97;0.80;;;;;;;;;;6216181;23;20438;-67
2023/04/11 11:00:48;;;;;;;2.30;0.63;;;;;;;;;;6215771;23;20453;-67
2023/04/11 11:03:34;;;;;;;0.97;0.77;;;;;;;;;;6216079;23;20376;-66
2023/04/11 11:06:03;;;;;;;0.90;0.40;;;;;;;;;;6216697;23;20355;-66
2023/04/11 11:08:30;;;;;;;0.57;0.57;;;;;;;;;;6214452;23;20395;-67
2023/04/11 11:11:03;;;;;;;0.83;0.53;;;;;;;;;;6215979;23;20367;-72
2023/04/11 11:13:47;;;;;;;0.50;0.50;;;;;;;;;;6216276;23;20383;-70
2023/04/11 11:16:15;;;;;;;0.67;0.67;;;;;;;;;;6215886;23;20853;-69
2023/04/11 11:18:43;;;;;;;0.70;0.70;;;;;;;;;;6216203;23;20367;-67
2023/04/11 11:21:09;;;;;;;1.53;0.60;;;;;;;;;;6216413;23;20441;-66
2023/04/11 11:23:35;;;;;;;0.67;0.47;;;;;;;;;;6216005;23;20470;-70
2023/04/11 11:26:01;;;;;;;1.60;0.80;;;;;;;;;;6215689;23;20430;-75
2023/04/11 11:28:27;;;;;;;1.13;0.87;;;;;;;;;;6216131;23;20429;-71
2023/04/11 11:30:54;;;;;;;1.30;1.30;;;;;;;;;;6215594;23;20410;-67
2023/04/11 11:33:21;;;;;;;2.40;0.50;;;;;;;;;;6215713;23;20835;-69
2023/04/11 11:35:54;;;;;;;0.63;0.50;;;;;;;;;;6215696;23;20425;-70
2023/04/11 11:38:21;;;;;;;0.40;0.40;;;;;;;;;;6215674;23;20397;-65
2023/04/11 11:40:48;;;;;;;4.83;0.43;;;;;;;;;;6215268;23;20455;-68
2023/04/11 11:43:14;;;;;;;1.17;0.63;;;;;;;;;;6215917;23;20383;-69
2023/04/11 11:45:41;;;;;;;1.87;0.90;;;;;;;;;;6216038;23;20683;-70
2023/04/11 11:48:07;;;;;;;0.90;0.50;;;;;;;;;;6215953;23;20452;-67
2023/04/11 11:50:33;;;;;;;1.90;1.00;;;;;;;;;;6215898;23;20788;-66
2023/04/11 11:53:14;;;;;;;3.10;0.80;;;;;;;;;;6215883;23;20438;-72
2023/04/11 11:55:40;;;;;;;1.07;0.50;;;;;;;;;;6215686;23;20416;-71
2023/04/11 11:58:06;;;;;;;0.73;0.70;;;;;;;;;;6215497;23;20402;-69
2023/04/11 12:00:37;;;;;;;3.83;1.30;;;;;;;;;;6215316;23;20742;-70
2023/04/11 12:03:03;;;;;;;0.80;0.80;;;;;;;;;;6215701;23;20414;-71
2023/04/11 12:05:33;;;;;;;0.80;0.80;;;;;;;;;;6215511;23;20375;-72
2023/04/11 12:08:00;;;;;;;1.23;0.53;;;;;;;;;;6216009;23;20367;-71
2023/04/11 12:10:28;;;;;;;1.00;1.00;;;;;;;;;;6215422;23;20714;-76
2023/04/11 12:12:54;;;;;;;0.50;0.50;;;;;;;;;;6215709;23;20378;-74
2023/04/11 12:15:20;;;;;;;0.77;0.60;;;;;;;;;;6215556;23;20919;-67
2023/04/11 12:17:51;;;;;;;1.67;0.73;;;;;;;;;;6215415;23;20687;-75
2023/04/11 12:20:21;;;;;;;0.50;0.50;;;;;;;;;;6215833;23;20430;-74
2023/04/11 12:22:47;;;;;;;1.43;0.57;;;;;;;;;;6216209;23;20764;-71
2023/04/11 12:25:14;;;;;;;0.77;0.77;;;;;;;;;;6217665;23;20445;-76
2023/04/11 12:27:41;;;;;;;0.83;0.40;;;;;;;;;;6218169;23;20425;-68
2023/04/11 12:30:08;;;;;;;0.67;0.43;;;;;;;;;;6217456;23;20813;-78
2023/04/11 12:32:34;;;;;;;0.83;0.83;;;;;;;;;;6217670;23;20440;-70
2023/04/11 12:35:04;;;;;;;0.70;0.70;;;;;;;;;;6217742;23;20383;-67
2023/04/11 12:37:30;;;;;;;1.03;0.60;;;;;;;;;;6218161;23;20387;-74
2023/04/11 12:39:56;;;;;;;5.23;0.73;;;;;;;;;;6217088;23;20445;-68
2023/04/11 12:42:22;;;;;;;1.23;0.60;;;;;;;;;;6217646;23;20375;-71
2023/04/11 12:44:49;;;;;;;2.10;0.70;;;;;;;;;;6216955;23;20375;-70
2023/04/11 12:47:15;;;;;;;1.03;0.63;;;;;;;;;;6217143;23;20765;-73
2023/04/11 12:49:41;;;;;;;0.70;0.70;;;;;;;;;;6217743;23;20371;-75
2023/04/11 12:52:08;;;;;;;1.10;0.60;;;;;;;;;;6217109;23;20387;-73
2023/04/11 12:54:34;;;;;;;1.07;1.07;;;;;;;;;;6217320;23;20375;-76
2023/04/11 12:57:00;;;;;;;1.10;1.00;;;;;;;;;;6215848;23;20410;-78
2023/04/11 12:59:26;;;;;;;0.97;0.60;;;;;;;;;;6217186;23;20410;-70
2023/04/11 13:01:52;;;;;;;5.90;1.00;;;;;;;;;;6217279;23;20430;-72
2023/04/11 13:04:18;;;;;;;2.07;0.87;;;;;;;;;;6217541;23;20872;-70
2023/04/11 13:06:46;;;;;;;0.70;0.70;;;;;;;;;;6217160;23;20462;-76
2023/04/11 13:09:12;;;;;;;2.43;0.60;;;;;;;;;;6218132;23;20371;-71
2023/04/11 13:11:38;;;;;;;0.93;0.63;;;;;;;;;;6217401;23;20378;-71
2023/04/11 13:14:04;;;;;;;2.37;0.57;;;;;;;;;;6217387;23;20383;-75
2023/04/11 13:16:30;;;;;;;1.03;0.93;;;;;;;;;;6217393;23;20380;-70
2023/04/11 13:18:56;;;;;;;0.60;0.60;;;;;;;;;;6216984;23;20748;-75
2023/04/11 13:21:23;;;;;;;0.47;0.47;;;;;;;;;;6216826;23;20939;-76
2023/04/11 13:23:50;;;;;;;0.93;0.90;;;;;;;;;;6217353;23;20390;-66
2023/04/11 13:26:16;;;;;;;0.47;0.47;;;;;;;;;;6217262;23;20406;-77
2023/04/11 13:28:42;;;;;;;0.60;0.60;;;;;;;;;;6217293;23;20483;-69
2023/04/11 13:31:09;;;;;;;0.60;0.60;;;;;;;;;;6216863;23;20418;-70
2023/04/11 13:33:35;;;;;;;0.80;0.80;;;;;;;;;;6217046;23;20706;-66
2023/04/11 13:36:01;;;;;;;2.03;0.60;;;;;;;;;;6216817;23;20842;-69
2023/04/11 13:38:27;;;;;;;0.90;0.90;;;;;;;;;;6216936;23;20912;-72
2023/04/11 13:40:53;;;;;;;0.40;0.40;;;;;;;;;;6216479;23;20442;-69
2023/04/11 13:43:19;;;;;;;3.53;0.70;;;;;;;;;;6215281;23;20387;-71
2023/04/11 13:45:45;;;;;;;0.70;0.70;;;;;;;;;;6217105;23;20437;-69
2023/04/11 13:48:11;;;;;;;2.10;1.10;;;;;;;;;;6216683;23;20382;-70
2023/04/11 13:50:37;;;;;;;1.00;0.90;;;;;;;;;;6217031;23;20840;-74
2023/04/11 13:53:03;;;;;;;4.17;1.40;;;;;;;;;;6216680;23;20426;-71
2023/04/11 13:55:29;;;;;;;1.53;1.30;;;;;;;;;;6190402;23;20376;-75
2023/04/11 13:57:55;;;;;;;0.83;0.83;;;;;;;;;;6217020;23;20845;-76
2023/04/11 14:00:21;;;;;;;2.97;1.03;;;;;;;;;;6216756;23;20445;-78
2023/04/11 14:02:47;;;;;;;2.43;2.00;;;;;;;;;;6216826;23;20442;-71
2023/04/11 14:05:13;;;;;;;5.00;4.17;;;;;;;;;;6216875;23;20375;-75
2023/04/11 14:07:39;;;;;;;15.70;11.27;;;;;;;;;;6216913;23;20706;-75
2023/04/11 14:10:06;;;;;;;9.53;6.30;;;;;;;;;;6189880;23;20490;-73
2023/04/11 14:12:32;;;;;;;2.93;1.43;;;;;;;;;;6216588;23;20842;-70
2023/04/11 14:14:58;;;;;;;9.50;1.30;;;;;;;;;;6216636;23;20379;-68
2023/04/11 14:17:24;;;;;;;1.47;1.13;;;;;;;;;;6216488;23;20456;-72
2023/04/11 14:19:50;;;;;;;1.00;1.00;;;;;;;;;;6216147;23;20841;-74
2023/04/11 14:22:16;;;;;;;1.53;1.43;;;;;;;;;;6216437;23;20433;-69
2023/04/11 14:24:42;;;;;;;5.80;1.80;;;;;;;;;;6216161;23;20383;-69
2023/04/11 14:27:08;;;;;;;1.50;0.87;;;;;;;;;;6215985;23;20384;-66
2023/04/11 14:29:36;;;;;;;2.47;2.23;;;;;;;;;;6216673;23;20411;-66
2023/04/11 14:32:02;;;;;;;0.83;0.83;;;;;;;;;;6216088;23;20407;-66
2023/04/11 14:34:28;;;;;;;0.83;0.80;;;;;;;;;;6216126;23;20383;-68
2023/04/11 14:36:54;;;;;;;3.10;0.80;;;;;;;;;;6216191;23;20429;-71
2023/04/11 14:39:20;;;;;;;1.10;1.10;;;;;;;;;;6215996;23;20429;-69
2023/04/11 14:41:47;;;;;;;2.60;1.07;;;;;;;;;;6214425;23;20489;-66
2023/04/11 14:44:15;;;;;;;1.77;1.40;;;;;;;;;;6216508;23;20380;-70
2023/04/11 14:46:41;;;;;;;1.80;0.67;;;;;;;;;;6216296;23;20825;-75
2023/04/11 14:49:07;;;;;;;0.53;0.53;;;;;;;;;;6216319;23;20386;-72